createdAt,value
2023-02-06T00:00:11.944Z,4.80
2023-02-06T00:01:11.934Z,4.00
2023-02-06T00:02:12.032Z,4.30
2023-02-06T00:03:11.935Z,4.50
2023-02-06T00:04:11.901Z,4.30
2023-02-06T00:05:11.890Z,4.40
2023-02-06T00:06:11.883Z,4.00
2023-02-06T00:07:11.885Z,4.60
2023-02-06T00:08:11.863Z,4.70
2023-02-06T00:09:11.849Z,3.50
2023-02-06T00:10:11.832Z,4.20
2023-02-06T00:11:11.826Z,4.60
2023-02-06T00:12:11.826Z,3.90
2023-02-06T00:13:11.800Z,5.20
2023-02-06T00:14:11.803Z,4.20
2023-02-06T00:15:11.796Z,5.30
2023-02-06T00:16:11.777Z,4.00
2023-02-06T00:17:11.765Z,5.20
2023-02-06T00:18:11.743Z,4.00
2023-02-06T00:19:11.753Z,4.70
2023-02-06T00:20:11.773Z,4.70
2023-02-06T00:21:11.724Z,4.80
2023-02-06T00:22:11.716Z,3.70
2023-02-06T00:23:11.701Z,3.60
2023-02-06T00:24:11.694Z,4.00
2023-02-06T00:25:11.674Z,3.90
2023-02-06T00:26:11.660Z,4.10
2023-02-06T00:27:11.652Z,3.90
2023-02-06T00:28:11.729Z,4.40
2023-02-06T00:29:11.640Z,4.20
2023-02-06T00:30:11.616Z,3.80
2023-02-06T00:31:11.752Z,5.50
2023-02-06T00:32:11.601Z,5.00
2023-02-06T00:33:11.598Z,4.20
2023-02-06T00:34:11.576Z,4.80
2023-02-06T00:35:11.575Z,4.90
2023-02-06T00:36:11.565Z,5.00
2023-02-06T00:37:11.584Z,4.90
2023-02-06T00:38:11.563Z,4.30
2023-02-06T00:39:11.526Z,5.50
2023-02-06T00:40:11.514Z,4.50
2023-02-06T00:41:11.512Z,4.20
2023-02-06T00:42:11.575Z,3.70
2023-02-06T00:43:11.493Z,4.20
2023-02-06T00:44:11.465Z,4.50
2023-02-06T00:45:11.464Z,4.10
2023-02-06T00:46:11.467Z,4.30
2023-02-06T00:47:11.439Z,4.30
2023-02-06T00:48:11.437Z,5.00
2023-02-06T00:49:11.447Z,4.20
2023-02-06T00:50:11.404Z,4.80
2023-02-06T00:51:11.417Z,4.60
2023-02-06T00:52:11.384Z,4.30
2023-02-06T00:53:11.374Z,3.30
2023-02-06T00:54:11.399Z,4.20
2023-02-06T00:55:11.358Z,4.90
2023-02-06T00:56:11.346Z,4.40
2023-02-06T00:57:11.388Z,4.20
2023-02-06T00:58:11.323Z,4.90
2023-02-06T00:59:11.312Z,5.40
2023-02-06T01:00:11.302Z,3.70
2023-02-06T01:01:11.288Z,4.20
2023-02-06T01:02:11.348Z,3.80
2023-02-06T01:03:11.275Z,5.80
2023-02-06T01:04:11.266Z,5.00
2023-02-06T01:05:11.244Z,4.80
2023-02-06T01:06:11.229Z,4.00
2023-02-06T01:07:11.227Z,4.20
2023-02-06T01:08:11.206Z,5.60
2023-02-06T01:09:11.199Z,4.10
2023-02-06T01:10:11.191Z,5.20
2023-02-06T01:11:11.181Z,4.00
2023-02-06T01:12:11.176Z,5.20
2023-02-06T01:13:11.162Z,4.30
2023-02-06T01:14:11.135Z,5.50
2023-02-06T01:15:11.131Z,4.50
2023-02-06T01:16:11.172Z,4.90
2023-02-06T01:17:11.120Z,3.90
2023-02-06T01:18:11.094Z,4.80
2023-02-06T01:19:11.101Z,4.80
2023-02-06T01:20:11.079Z,5.10
2023-02-06T01:21:11.071Z,3.90
2023-02-06T01:22:11.063Z,4.00
2023-02-06T01:23:11.049Z,3.90
2023-02-06T01:24:11.031Z,4.50
2023-02-06T01:25:11.038Z,3.90
2023-02-06T01:26:11.010Z,5.20
2023-02-06T01:27:11.010Z,3.80
2023-02-06T01:28:11.030Z,3.80
2023-02-06T01:29:10.980Z,3.70
2023-02-06T01:30:10.982Z,4.30
2023-02-06T01:31:10.984Z,4.10
2023-02-06T01:32:10.942Z,4.50
2023-02-06T01:33:10.944Z,4.00
2023-02-06T01:34:10.925Z,4.00
2023-02-06T01:35:10.915Z,3.60
2023-02-06T01:36:10.906Z,4.00
2023-02-06T01:37:10.973Z,4.40
2023-02-06T01:38:10.896Z,4.50
2023-02-06T01:39:10.885Z,4.20
2023-02-06T01:40:10.859Z,5.40
2023-02-06T01:41:10.900Z,4.70
2023-02-06T01:42:10.913Z,4.80
2023-02-06T01:43:10.844Z,4.70
2023-02-06T01:44:10.863Z,4.80
2023-02-06T01:45:10.810Z,4.10
2023-02-06T01:46:10.794Z,4.80
2023-02-06T01:47:10.796Z,4.50
2023-02-06T01:48:10.790Z,4.40
2023-02-06T01:49:10.777Z,4.70
2023-02-06T01:50:10.758Z,4.60
2023-02-06T01:51:10.748Z,4.10
2023-02-06T01:52:10.735Z,5.10
2023-02-06T01:53:10.731Z,5.30
2023-02-06T01:54:10.748Z,4.60
2023-02-06T01:55:10.709Z,4.10
2023-02-06T01:56:10.698Z,4.90
2023-02-06T01:57:10.684Z,4.20
2023-02-06T01:58:10.682Z,5.00
2023-02-06T01:59:10.681Z,4.00
2023-02-06T02:00:10.653Z,4.20
2023-02-06T02:01:10.648Z,4.70
2023-02-06T02:02:10.718Z,5.20
2023-02-06T02:03:10.636Z,4.80
2023-02-06T02:04:10.609Z,5.00
2023-02-06T02:05:10.599Z,4.20
2023-02-06T02:06:10.592Z,4.00
2023-02-06T02:07:10.589Z,4.20
2023-02-06T02:08:10.564Z,3.60
2023-02-06T02:09:10.567Z,4.30
2023-02-06T02:10:10.549Z,5.10
2023-02-06T02:11:10.543Z,4.80
2023-02-06T02:12:10.533Z,4.20
2023-02-06T02:13:10.520Z,3.90
2023-02-06T02:14:10.504Z,4.70
2023-02-06T02:15:10.514Z,3.80
2023-02-06T02:16:10.513Z,4.60
2023-02-06T02:17:10.555Z,3.90
2023-02-06T02:18:10.471Z,4.90
2023-02-06T02:19:10.466Z,4.20
2023-02-06T02:20:10.450Z,4.30
2023-02-06T02:21:10.439Z,4.10
2023-02-06T02:22:10.425Z,5.30
2023-02-06T02:23:10.427Z,4.40
2023-02-06T02:24:10.402Z,3.80
2023-02-06T02:25:10.405Z,4.10
2023-02-06T02:26:10.384Z,5.10
2023-02-06T02:27:10.373Z,4.60
2023-02-06T02:28:10.425Z,4.60
2023-02-06T02:29:10.352Z,5.50
2023-02-06T02:30:10.346Z,3.80
2023-02-06T02:31:10.380Z,4.80
2023-02-06T02:32:10.332Z,4.60
2023-02-06T02:33:10.306Z,4.80
2023-02-06T02:34:10.313Z,3.70
2023-02-06T02:35:10.287Z,4.40
2023-02-06T02:36:10.287Z,4.80
2023-02-06T02:37:10.300Z,4.80
2023-02-06T02:39:20.310Z,5.40
2023-02-06T02:40:21.328Z,5.00
2023-02-06T02:41:21.286Z,5.00
2023-02-06T02:42:21.287Z,4.70
2023-02-06T02:43:21.267Z,4.50
2023-02-06T02:44:21.265Z,5.40
2023-02-06T02:45:21.239Z,5.00
2023-02-06T02:46:21.249Z,4.80
2023-02-06T02:47:21.217Z,4.80
2023-02-06T02:48:21.212Z,3.50
2023-02-06T02:49:21.212Z,5.40
2023-02-06T02:50:21.194Z,4.20
2023-02-06T02:51:21.187Z,4.50
2023-02-06T02:52:21.169Z,5.20
2023-02-06T02:53:21.156Z,5.30
2023-02-06T02:54:21.249Z,5.40
2023-02-06T02:55:21.165Z,4.70
2023-02-06T02:56:21.156Z,4.80
2023-02-06T02:57:21.108Z,4.60
2023-02-06T02:58:21.105Z,4.50
2023-02-06T02:59:21.099Z,4.90
2023-02-06T03:00:21.089Z,5.20
2023-02-06T03:01:21.187Z,5.00
2023-02-06T03:02:21.203Z,4.80
2023-02-06T03:03:21.104Z,3.90
2023-02-06T03:04:21.082Z,5.00
2023-02-06T03:05:21.025Z,4.40
2023-02-06T03:06:21.023Z,4.10
2023-02-06T03:07:21.015Z,4.40
2023-02-06T03:08:20.995Z,4.30
2023-02-06T03:09:20.983Z,3.80
2023-02-06T03:10:20.984Z,4.10
2023-02-06T03:11:20.959Z,4.90
2023-02-06T03:12:20.955Z,4.10
2023-02-06T03:13:20.962Z,5.10
2023-02-06T03:14:20.964Z,4.80
2023-02-06T03:15:20.923Z,4.70
2023-02-06T03:16:20.949Z,4.60
2023-02-06T03:17:20.924Z,4.10
2023-02-06T03:18:20.926Z,4.20
2023-02-06T03:19:20.903Z,5.60
2023-02-06T03:20:20.881Z,5.80
2023-02-06T03:21:20.875Z,5.10
2023-02-06T03:22:20.877Z,4.50
2023-02-06T03:23:20.843Z,4.40
2023-02-06T03:24:20.893Z,5.00
2023-02-06T03:25:20.829Z,5.10
2023-02-06T03:26:20.832Z,4.70
2023-02-06T03:27:20.789Z,4.30
2023-02-06T03:28:20.795Z,4.90
2023-02-06T03:29:20.851Z,4.50
2023-02-06T03:30:20.771Z,4.30
2023-02-06T03:31:20.776Z,4.90
2023-02-06T03:32:20.740Z,4.20
2023-02-06T03:33:20.737Z,5.10
2023-02-06T03:34:20.719Z,4.20
2023-02-06T03:35:20.713Z,5.90
2023-02-06T03:36:20.703Z,5.20
2023-02-06T03:37:20.698Z,4.40
2023-02-06T03:38:20.699Z,4.70
2023-02-06T03:39:20.724Z,5.10
2023-02-06T03:40:20.666Z,4.00
2023-02-06T03:41:20.654Z,4.40
2023-02-06T03:42:20.644Z,4.60
2023-02-06T03:43:20.625Z,4.70
2023-02-06T03:44:20.628Z,4.90
2023-02-06T03:45:20.599Z,5.40
2023-02-06T03:46:20.651Z,5.00
2023-02-06T03:47:20.590Z,4.70
2023-02-06T03:48:20.582Z,4.10
2023-02-06T03:49:20.630Z,4.70
2023-02-06T03:50:20.559Z,4.80
2023-02-06T03:51:20.539Z,4.70
2023-02-06T03:52:20.542Z,5.20
2023-02-06T03:53:20.530Z,4.70
2023-02-06T03:54:20.522Z,5.40
2023-02-06T03:55:20.509Z,4.60
2023-02-06T03:56:20.513Z,5.10
2023-02-06T03:57:20.478Z,4.50
2023-02-06T03:58:20.490Z,4.70
2023-02-06T03:59:20.471Z,4.90
2023-02-06T04:00:20.466Z,5.00
2023-02-06T04:01:20.463Z,4.30
2023-02-06T04:02:20.492Z,4.80
2023-02-06T04:03:20.421Z,4.70
2023-02-06T04:04:20.416Z,5.10
2023-02-06T04:05:20.396Z,4.80
2023-02-06T04:06:20.420Z,5.00
2023-02-06T04:07:20.392Z,5.10
2023-02-06T04:08:20.378Z,5.70
2023-02-06T04:09:20.362Z,4.60
2023-02-06T04:10:20.350Z,5.40
2023-02-06T04:11:20.357Z,4.60
2023-02-06T04:12:20.335Z,5.20
2023-02-06T04:13:20.320Z,4.90
2023-02-06T04:14:20.312Z,5.10
2023-02-06T04:15:20.310Z,5.00
2023-02-06T04:16:20.320Z,4.70
2023-02-06T04:17:38.467Z,5.00
2023-02-06T04:18:20.273Z,5.00
2023-02-06T04:19:20.272Z,4.90
2023-02-06T04:20:20.272Z,4.50
2023-02-06T04:21:20.250Z,4.90
2023-02-06T04:22:20.224Z,4.70
2023-02-06T04:23:20.220Z,4.60
2023-02-06T04:24:20.204Z,4.70
2023-02-06T04:25:20.200Z,5.50
2023-02-06T04:26:20.205Z,4.60
2023-02-06T04:27:20.189Z,4.20
2023-02-06T04:28:20.247Z,4.80
2023-02-06T04:29:20.191Z,4.70
2023-02-06T04:30:20.141Z,5.60
2023-02-06T04:31:20.237Z,4.80
2023-02-06T04:32:20.150Z,4.30
2023-02-06T04:33:20.123Z,4.70
2023-02-06T04:34:20.103Z,4.70
2023-02-06T04:35:20.106Z,5.00
2023-02-06T04:36:20.080Z,5.60
2023-02-06T04:37:20.085Z,5.00
2023-02-06T04:38:20.062Z,4.00
2023-02-06T04:39:20.056Z,5.30
2023-02-06T04:40:20.051Z,4.50
2023-02-06T04:41:20.038Z,4.70
2023-02-06T04:42:20.047Z,6.50
2023-02-06T04:43:20.021Z,4.30
2023-02-06T04:44:20.071Z,4.60
2023-02-06T04:45:19.989Z,4.70
2023-02-06T04:46:20.554Z,4.80
2023-02-06T04:47:19.976Z,4.20
2023-02-06T04:48:19.968Z,4.30
2023-02-06T04:49:20.074Z,4.80
2023-02-06T04:50:19.937Z,5.10
2023-02-06T04:51:19.931Z,4.70
2023-02-06T04:52:19.914Z,4.40
2023-02-06T04:53:19.934Z,4.60
2023-02-06T04:54:19.896Z,5.00
2023-02-06T04:55:19.895Z,5.30
2023-02-06T04:56:19.871Z,5.10
2023-02-06T04:57:19.867Z,4.70
2023-02-06T04:58:19.883Z,5.00
2023-02-06T04:59:19.856Z,5.70
2023-02-06T05:00:19.842Z,4.60
2023-02-06T05:01:19.905Z,6.20
2023-02-06T05:02:20.077Z,4.90
2023-02-06T05:03:19.806Z,5.10
2023-02-06T05:04:19.790Z,4.80
2023-02-06T05:05:19.786Z,5.20
2023-02-06T05:06:19.769Z,4.70
2023-02-06T05:07:19.777Z,5.10
2023-02-06T05:08:19.758Z,4.80
2023-02-06T05:09:19.742Z,4.90
2023-02-06T05:10:19.724Z,4.60
2023-02-06T05:11:19.714Z,5.00
2023-02-06T05:12:19.699Z,5.10
2023-02-06T05:13:19.720Z,5.00
2023-02-06T05:14:19.689Z,5.10
2023-02-06T05:15:19.680Z,5.70
2023-02-06T05:16:19.688Z,3.90
2023-02-06T05:17:19.652Z,6.20
2023-02-06T05:18:19.652Z,4.60
2023-02-06T05:19:19.625Z,4.20
2023-02-06T05:20:19.613Z,4.70
2023-02-06T05:21:19.603Z,4.70
2023-02-06T05:22:19.592Z,4.20
2023-02-06T05:23:19.603Z,4.90
2023-02-06T05:24:19.565Z,4.60
2023-02-06T05:25:19.569Z,4.30
2023-02-06T05:26:19.550Z,4.20
2023-02-06T05:27:19.537Z,4.60
2023-02-06T05:28:19.602Z,4.80
2023-02-06T05:29:19.600Z,5.10
2023-02-06T05:30:19.510Z,4.70
2023-02-06T05:31:19.735Z,4.90
2023-02-06T05:32:19.476Z,4.60
2023-02-06T05:33:19.474Z,5.20
2023-02-06T05:34:19.456Z,6.00
2023-02-06T05:35:19.461Z,4.80
2023-02-06T05:36:19.452Z,4.70
2023-02-06T05:37:19.506Z,4.60
2023-02-06T05:38:19.414Z,5.90
2023-02-06T05:39:19.413Z,5.20
2023-02-06T05:40:19.411Z,5.30
2023-02-06T05:41:19.386Z,4.30
2023-02-06T05:42:19.376Z,5.90
2023-02-06T05:43:19.373Z,6.40
2023-02-06T05:44:19.352Z,6.40
2023-02-06T05:45:19.349Z,5.10
2023-02-06T05:46:19.417Z,6.30
2023-02-06T05:47:19.333Z,6.40
2023-02-06T05:48:19.315Z,6.40
2023-02-06T05:49:19.313Z,4.90
2023-02-06T05:50:19.300Z,4.80
2023-02-06T05:51:19.364Z,5.00
2023-02-06T05:52:19.266Z,5.00
2023-02-06T05:53:19.258Z,5.30
2023-02-06T05:54:19.254Z,4.90
2023-02-06T05:55:19.258Z,5.40
2023-02-06T05:56:19.235Z,4.10
2023-02-06T05:57:19.228Z,4.80
2023-02-06T05:58:19.204Z,4.80
2023-02-06T05:59:19.209Z,5.10
2023-02-06T06:00:19.192Z,4.70
2023-02-06T06:01:19.186Z,5.80
2023-02-06T06:02:19.172Z,5.10
2023-02-06T06:03:19.186Z,4.20
2023-02-06T06:04:19.219Z,5.00
2023-02-06T06:05:19.138Z,5.60
2023-02-06T06:06:19.126Z,4.70
2023-02-06T06:07:19.134Z,5.10
2023-02-06T06:08:19.105Z,5.60
2023-02-06T06:09:19.097Z,5.00
2023-02-06T06:10:19.081Z,6.00
2023-02-06T06:11:19.083Z,5.30
2023-02-06T06:12:19.070Z,5.70
2023-02-06T06:13:19.072Z,5.60
2023-02-06T06:14:19.051Z,5.20
2023-02-06T06:15:19.036Z,5.50
2023-02-06T06:16:19.068Z,5.10
2023-02-06T06:17:19.018Z,5.10
2023-02-06T06:18:19.011Z,5.10
2023-02-06T06:19:18.999Z,5.20
2023-02-06T06:20:18.984Z,5.30
2023-02-06T06:21:18.973Z,6.20
2023-02-06T06:22:18.959Z,5.10
2023-02-06T06:23:18.964Z,5.00
2023-02-06T06:24:18.957Z,6.20
2023-02-06T06:25:18.950Z,5.30
2023-02-06T06:26:18.920Z,5.40
2023-02-06T06:27:18.932Z,5.20
2023-02-06T06:28:18.998Z,5.30
2023-02-06T06:29:18.896Z,5.90
2023-02-06T06:30:18.903Z,5.50
2023-02-06T06:31:19.002Z,5.90
2023-02-06T06:32:18.862Z,5.60
2023-02-06T06:33:18.867Z,5.30
2023-02-06T06:34:18.831Z,5.30
2023-02-06T06:35:18.853Z,5.70
2023-02-06T06:36:18.823Z,4.80
2023-02-06T06:37:18.809Z,5.50
2023-02-06T06:38:18.750Z,6.40
2023-02-06T06:39:18.731Z,5.40
2023-02-06T06:40:18.770Z,5.00
2023-02-06T06:41:18.780Z,5.50
2023-02-06T06:42:18.752Z,5.30
2023-02-06T06:43:18.728Z,5.10
2023-02-06T06:44:18.685Z,4.70
2023-02-06T06:45:18.709Z,4.50
2023-02-06T06:46:18.656Z,5.30
2023-02-06T06:47:18.708Z,5.00
2023-02-06T06:48:18.685Z,5.70
2023-02-06T06:49:18.630Z,6.10
2023-02-06T06:50:18.610Z,5.30
2023-02-06T06:51:18.604Z,5.60
2023-02-06T06:52:24.860Z,6.00
2023-02-06T06:53:18.599Z,5.40
2023-02-06T06:54:18.577Z,5.30
2023-02-06T06:55:18.561Z,5.20
2023-02-06T06:56:18.548Z,5.20
2023-02-06T06:57:18.559Z,5.60
2023-02-06T06:58:18.542Z,4.80
2023-02-06T06:59:18.539Z,5.20
2023-02-06T07:00:18.522Z,5.20
2023-02-06T07:01:18.565Z,5.40
2023-02-06T07:02:18.493Z,5.60
2023-02-06T07:03:18.530Z,5.20
2023-02-06T07:04:18.476Z,4.70
2023-02-06T07:05:18.476Z,5.20
2023-02-06T07:06:18.443Z,5.00
2023-02-06T07:07:18.475Z,5.20
2023-02-06T07:08:18.426Z,4.70
2023-02-06T07:09:18.418Z,4.80
2023-02-06T07:10:18.409Z,4.80
2023-02-06T07:11:18.398Z,5.10
2023-02-06T07:12:18.417Z,4.20
2023-02-06T07:13:18.450Z,5.50
2023-02-06T07:14:18.371Z,4.60
2023-02-06T07:15:18.353Z,6.00
2023-02-06T07:16:18.373Z,4.80
2023-02-06T07:17:18.371Z,6.40
2023-02-06T07:18:18.381Z,5.90
2023-02-06T07:19:18.322Z,6.10
2023-02-06T07:20:18.308Z,6.30
2023-02-06T07:21:18.294Z,5.70
2023-02-06T07:22:18.281Z,5.70
2023-02-06T07:23:18.278Z,5.90
2023-02-06T07:24:18.281Z,5.40
2023-02-06T07:25:18.257Z,7.00
2023-02-06T07:26:18.319Z,5.40
2023-02-06T07:27:18.263Z,6.10
2023-02-06T07:28:18.253Z,5.80
2023-02-06T07:29:18.227Z,5.60
2023-02-06T07:30:18.197Z,6.50
2023-02-06T07:31:18.252Z,5.70
2023-02-06T07:32:18.179Z,5.70
2023-02-06T07:33:18.190Z,5.80
2023-02-06T07:34:18.229Z,5.90
2023-02-06T07:35:18.192Z,6.40
2023-02-06T07:36:18.177Z,5.60
2023-02-06T07:37:18.149Z,5.40
2023-02-06T07:38:18.113Z,6.60
2023-02-06T07:39:18.125Z,6.20
2023-02-06T07:40:18.105Z,5.60
2023-02-06T07:41:18.094Z,6.80
2023-02-06T07:42:18.087Z,6.00
2023-02-06T07:43:18.087Z,5.90
2023-02-06T07:44:18.053Z,6.40
2023-02-06T07:45:18.070Z,6.30
2023-02-06T07:46:18.131Z,6.40
2023-02-06T07:47:18.053Z,6.80
2023-02-06T07:48:18.021Z,6.70
2023-02-06T07:49:18.029Z,6.10
2023-02-06T07:50:17.988Z,4.90
2023-02-06T07:51:18.002Z,5.60
2023-02-06T07:52:17.987Z,6.30
2023-02-06T07:53:17.965Z,5.20
2023-02-06T07:54:20.532Z,5.70
2023-02-06T07:55:17.954Z,7.00
2023-02-06T07:56:17.932Z,5.40
2023-02-06T07:57:18.933Z,5.70
2023-02-06T07:58:17.910Z,5.90
2023-02-06T07:59:17.904Z,5.60
2023-02-06T08:00:17.889Z,5.50
2023-02-06T08:01:17.911Z,5.50
2023-02-06T08:02:17.912Z,6.10
2023-02-06T08:03:17.880Z,6.00
2023-02-06T08:04:17.939Z,5.30
2023-02-06T08:05:17.837Z,7.00
2023-02-06T08:06:17.853Z,6.40
2023-02-06T08:07:17.850Z,6.00
2023-02-06T08:08:17.805Z,6.60
2023-02-06T08:09:17.817Z,6.20
2023-02-06T08:10:17.806Z,6.10
2023-02-06T08:11:17.828Z,6.30
2023-02-06T08:12:17.780Z,6.50
2023-02-06T08:13:17.755Z,6.70
2023-02-06T08:14:17.740Z,7.00
2023-02-06T08:15:17.811Z,5.50
2023-02-06T08:16:17.771Z,6.00
2023-02-06T08:17:19.696Z,6.30
2023-02-06T08:18:17.746Z,8.10
2023-02-06T08:19:17.687Z,7.10
2023-02-06T08:20:17.676Z,6.80
2023-02-06T08:21:17.696Z,7.10
2023-02-06T08:22:17.678Z,6.90
2023-02-06T08:23:19.679Z,5.40
2023-02-06T08:24:17.648Z,6.20
2023-02-06T08:25:17.621Z,7.60
2023-02-06T08:26:17.619Z,7.20
2023-02-06T08:27:17.606Z,7.00
2023-02-06T08:28:17.652Z,5.50
2023-02-06T08:29:17.602Z,7.30
2023-02-06T08:30:17.571Z,6.50
2023-02-06T08:31:17.713Z,7.30
2023-02-06T08:32:17.555Z,27.00
2023-02-06T08:33:17.541Z,29.30
2023-02-06T08:34:17.548Z,15.40
2023-02-06T08:35:17.513Z,11.10
2023-02-06T08:36:17.518Z,12.20
2023-02-06T08:37:17.498Z,7.70
2023-02-06T08:38:17.494Z,10.10
2023-02-06T08:39:17.525Z,9.90
2023-02-06T08:40:17.485Z,8.80
2023-02-06T08:41:17.501Z,8.00
2023-02-06T08:42:17.446Z,8.20
2023-02-06T08:43:17.430Z,9.70
2023-02-06T08:44:17.439Z,8.30
2023-02-06T08:45:17.412Z,8.10
2023-02-06T08:46:17.472Z,7.60
2023-02-06T08:47:17.400Z,7.80
2023-02-06T08:48:17.410Z,7.00
2023-02-06T08:49:17.382Z,6.80
2023-02-06T08:50:17.367Z,8.90
2023-02-06T08:51:17.344Z,7.20
2023-02-06T08:52:17.353Z,7.30
2023-02-06T08:53:17.328Z,7.30
2023-02-06T08:54:17.359Z,6.70
2023-02-06T08:55:17.570Z,6.60
2023-02-06T08:56:17.304Z,7.90
2023-02-06T08:57:17.306Z,8.00
2023-02-06T08:58:17.291Z,7.50
2023-02-06T08:59:17.264Z,7.30
2023-02-06T09:00:17.274Z,7.20
2023-02-06T09:01:17.299Z,7.00
2023-02-06T09:02:17.326Z,6.60
2023-02-06T09:03:17.230Z,6.40
2023-02-06T09:04:17.213Z,7.50
2023-02-06T09:05:17.233Z,8.40
2023-02-06T09:06:17.199Z,6.20
2023-02-06T09:07:17.408Z,7.50
2023-02-06T09:08:17.171Z,6.20
2023-02-06T09:09:17.167Z,6.50
2023-02-06T09:10:27.074Z,7.10
2023-02-06T09:11:17.152Z,6.30
2023-02-06T09:12:17.142Z,6.30
2023-02-06T09:13:17.126Z,6.20
2023-02-06T09:14:17.114Z,5.70
2023-02-06T09:15:17.094Z,6.20
2023-02-06T09:16:17.152Z,7.00
2023-02-06T09:17:17.092Z,7.60
2023-02-06T09:18:17.239Z,6.90
2023-02-06T09:19:17.054Z,5.80
2023-02-06T09:20:17.046Z,6.80
2023-02-06T09:21:17.899Z,7.30
2023-02-06T09:22:17.030Z,8.40
2023-02-06T09:23:17.020Z,7.60
2023-02-06T09:24:17.009Z,7.80
2023-02-06T09:25:17.015Z,6.40
2023-02-06T09:26:16.991Z,7.30
2023-02-06T09:27:16.961Z,6.60
2023-02-06T09:28:17.017Z,5.80
2023-02-06T09:29:16.943Z,7.60
2023-02-06T09:30:16.931Z,8.60
2023-02-06T09:31:17.084Z,6.10
2023-02-06T09:32:16.934Z,6.90
2023-02-06T09:33:16.903Z,6.00
2023-02-06T09:34:16.897Z,6.30
2023-02-06T09:35:16.908Z,6.00
2023-02-06T09:36:16.888Z,6.60
2023-02-06T09:37:16.885Z,5.90
2023-02-06T09:38:16.898Z,7.60
2023-02-06T09:39:16.845Z,6.40
2023-02-06T09:40:16.844Z,7.00
2023-02-06T09:41:16.814Z,6.10
2023-02-06T09:42:16.830Z,6.40
2023-02-06T09:43:16.792Z,6.50
2023-02-06T09:44:16.798Z,6.30
2023-02-06T09:45:16.769Z,6.20
2023-02-06T09:46:16.815Z,6.70
2023-02-06T09:47:16.759Z,6.40
2023-02-06T09:48:16.740Z,6.60
2023-02-06T09:49:16.730Z,6.40
2023-02-06T09:50:16.725Z,5.80
2023-02-06T09:51:16.712Z,6.50
2023-02-06T09:52:16.714Z,6.10
2023-02-06T09:53:16.685Z,6.40
2023-02-06T09:54:16.688Z,7.00
2023-02-06T09:55:16.668Z,6.90
2023-02-06T09:56:16.654Z,6.80
2023-02-06T09:57:16.650Z,7.40
2023-02-06T09:58:16.640Z,8.00
2023-02-06T09:59:17.663Z,6.30
2023-02-06T10:00:16.615Z,5.60
2023-02-06T10:01:16.639Z,6.00
2023-02-06T10:02:16.601Z,6.30
2023-02-06T10:03:16.576Z,7.50
2023-02-06T10:04:16.655Z,9.00
2023-02-06T10:05:16.564Z,10.10
2023-02-06T10:06:16.556Z,8.30
2023-02-06T10:07:16.536Z,8.70
2023-02-06T10:08:16.533Z,7.90
2023-02-06T10:09:16.520Z,7.70
2023-02-06T10:10:16.531Z,9.20
2023-02-06T10:11:16.532Z,8.60
2023-02-06T10:12:16.493Z,8.20
2023-02-06T10:13:16.474Z,7.80
2023-02-06T10:14:16.463Z,7.70
2023-02-06T10:15:16.487Z,7.50
2023-02-06T10:16:16.489Z,6.30
2023-02-06T10:17:16.437Z,7.60
2023-02-06T10:18:16.426Z,8.60
2023-02-06T10:19:16.418Z,7.10
2023-02-06T10:20:16.411Z,8.40
2023-02-06T10:21:16.391Z,7.40
2023-02-06T10:22:16.391Z,7.10
2023-02-06T10:23:16.374Z,7.40
2023-02-06T10:24:16.375Z,7.10
2023-02-06T10:25:16.357Z,8.70
2023-02-06T10:26:16.428Z,10.00
2023-02-06T10:27:16.332Z,8.50
2023-02-06T10:28:16.373Z,7.30
2023-02-06T10:29:16.937Z,8.20
2023-02-06T10:30:16.312Z,8.00
2023-02-06T10:31:16.418Z,7.70
2023-02-06T10:32:16.282Z,7.80
2023-02-06T10:33:25.214Z,8.20
2023-02-06T10:34:16.277Z,8.10
2023-02-06T10:35:16.268Z,7.50
2023-02-06T10:36:16.242Z,8.00
2023-02-06T10:37:16.222Z,7.20
2023-02-06T10:38:16.238Z,8.30
2023-02-06T10:39:16.210Z,6.70
2023-02-06T10:40:16.247Z,7.40
2023-02-06T10:41:16.200Z,7.40
2023-02-06T10:42:16.174Z,7.70
2023-02-06T10:43:16.371Z,7.60
2023-02-06T10:44:16.159Z,7.30
2023-02-06T10:45:20.179Z,8.30
2023-02-06T10:46:16.190Z,7.70
2023-02-06T10:47:22.561Z,7.10
2023-02-06T10:48:16.123Z,7.90
2023-02-06T10:49:16.103Z,8.40
2023-02-06T10:50:16.126Z,7.70
2023-02-06T10:51:16.117Z,8.30
2023-02-06T10:52:16.074Z,7.80
2023-02-06T10:53:16.070Z,8.30
2023-02-06T10:54:16.058Z,8.20
2023-02-06T10:55:16.030Z,8.00
2023-02-06T10:56:16.053Z,7.40
2023-02-06T10:57:16.014Z,8.60
2023-02-06T10:58:16.017Z,7.00
2023-02-06T10:59:15.990Z,7.40
2023-02-06T11:00:16.147Z,8.10
2023-02-06T11:01:25.441Z,7.50
2023-02-06T11:02:16.017Z,7.50
2023-02-06T11:03:15.946Z,7.50
2023-02-06T11:04:15.974Z,8.00
2023-02-06T11:05:15.958Z,7.70
2023-02-06T11:06:15.936Z,6.90
2023-02-06T11:07:15.921Z,7.70
2023-02-06T11:08:15.945Z,6.50
2023-02-06T11:09:15.893Z,6.80
2023-02-06T11:10:15.957Z,6.30
2023-02-06T11:11:15.878Z,7.60
2023-02-06T11:12:15.865Z,7.40
2023-02-06T11:13:15.849Z,7.50
2023-02-06T11:14:15.834Z,8.70
2023-02-06T11:15:15.814Z,7.00
2023-02-06T11:16:15.838Z,6.60
2023-02-06T11:17:15.797Z,8.80
2023-02-06T11:18:15.794Z,8.30
2023-02-06T11:19:15.783Z,8.40
2023-02-06T11:20:15.868Z,8.30
2023-02-06T11:21:15.765Z,7.70
2023-02-06T11:22:15.788Z,7.10
2023-02-06T11:23:15.734Z,7.90
2023-02-06T11:24:15.725Z,8.50
2023-02-06T11:25:15.747Z,7.50
2023-02-06T11:26:15.830Z,8.20
2023-02-06T11:27:15.847Z,7.30
2023-02-06T11:28:15.768Z,8.60
2023-02-06T11:29:15.713Z,8.90
2023-02-06T11:30:15.671Z,9.30
2023-02-06T11:31:15.706Z,17.50
2023-02-06T11:32:15.643Z,40.60
2023-02-06T11:33:15.629Z,21.90
2023-02-06T11:34:15.635Z,19.60
2023-02-06T11:35:15.613Z,20.50
2023-02-06T11:36:15.606Z,19.30
2023-02-06T11:37:15.590Z,13.80
2023-02-06T11:38:15.593Z,15.90
2023-02-06T11:39:15.572Z,14.70
2023-02-06T11:40:15.560Z,13.20
2023-02-06T11:41:15.547Z,10.10
2023-02-06T11:42:15.548Z,10.20
2023-02-06T11:43:15.525Z,10.00
2023-02-06T11:44:15.532Z,8.60
2023-02-06T11:45:15.512Z,9.00
2023-02-06T11:46:15.533Z,9.20
2023-02-06T11:47:15.476Z,8.60
2023-02-06T11:48:15.525Z,10.30
2023-02-06T11:49:15.487Z,9.30
2023-02-06T11:50:15.459Z,10.50
2023-02-06T11:51:15.434Z,7.70
2023-02-06T11:52:15.450Z,8.10
2023-02-06T11:53:15.434Z,10.20
2023-02-06T11:54:15.439Z,8.40
2023-02-06T11:55:15.401Z,8.70
2023-02-06T11:56:15.386Z,8.70
2023-02-06T11:57:15.384Z,9.30
2023-02-06T11:58:15.377Z,9.00
2023-02-06T11:59:15.368Z,8.70
2023-02-06T12:00:15.347Z,9.40
2023-02-06T12:01:15.338Z,10.10
2023-02-06T12:02:15.353Z,7.30
2023-02-06T12:03:15.366Z,8.70
2023-02-06T12:04:15.331Z,9.90
2023-02-06T12:05:15.293Z,10.30
2023-02-06T12:06:15.300Z,8.30
2023-02-06T12:07:15.292Z,9.90
2023-02-06T12:08:15.268Z,8.00
2023-02-06T12:09:15.259Z,9.60
2023-02-06T12:10:15.270Z,8.60
2023-02-06T12:11:15.233Z,7.60
2023-02-06T12:12:15.217Z,7.40
2023-02-06T12:13:15.210Z,9.30
2023-02-06T12:14:15.197Z,11.50
2023-02-06T12:15:39.820Z,9.20
2023-02-06T12:16:15.282Z,7.90
2023-02-06T12:17:15.209Z,8.60
2023-02-06T12:18:15.155Z,9.00
2023-02-06T12:19:15.139Z,8.90
2023-02-06T12:20:15.141Z,8.60
2023-02-06T12:21:15.126Z,8.70
2023-02-06T12:22:15.171Z,9.30
2023-02-06T12:23:15.218Z,9.60
2023-02-06T12:24:15.095Z,8.20
2023-02-06T12:25:15.147Z,9.40
2023-02-06T12:26:15.078Z,8.80
2023-02-06T12:27:15.072Z,10.10
2023-02-06T12:28:15.083Z,10.20
2023-02-06T12:29:15.066Z,10.10
2023-02-06T12:30:15.036Z,10.80
2023-02-06T12:31:15.154Z,8.30
2023-02-06T12:32:15.019Z,9.40
2023-02-06T12:33:14.997Z,8.00
2023-02-06T12:34:14.985Z,10.00
2023-02-06T12:35:14.988Z,9.60
2023-02-06T12:36:14.971Z,8.40
2023-02-06T12:37:15.005Z,9.50
2023-02-06T12:38:14.943Z,8.90
2023-02-06T12:39:16.620Z,10.10
2023-02-06T12:40:14.939Z,8.70
2023-02-06T12:41:14.909Z,9.40
2023-02-06T12:42:14.911Z,8.20
2023-02-06T12:43:14.888Z,9.20
2023-02-06T12:44:14.878Z,8.50
2023-02-06T12:45:14.869Z,10.50
2023-02-06T12:46:14.916Z,7.50
2023-02-06T12:47:14.892Z,9.10
2023-02-06T12:48:14.830Z,8.20
2023-02-06T12:49:14.826Z,9.20
2023-02-06T12:50:14.817Z,8.70
2023-02-06T12:51:14.807Z,8.00
2023-02-06T12:52:14.790Z,8.80
2023-02-06T12:53:14.812Z,9.50
2023-02-06T12:54:14.765Z,10.60
2023-02-06T12:55:14.814Z,8.20
2023-02-06T12:56:14.761Z,9.50
2023-02-06T12:57:14.748Z,8.90
2023-02-06T12:58:14.723Z,9.20
2023-02-06T12:59:14.720Z,8.70
2023-02-06T13:00:14.704Z,8.70
2023-02-06T13:01:28.001Z,9.90
2023-02-06T13:02:14.761Z,10.60
2023-02-06T13:03:14.763Z,9.50
2023-02-06T13:04:14.672Z,8.10
2023-02-06T13:05:14.670Z,9.90
2023-02-06T13:06:14.663Z,8.90
2023-02-06T13:07:14.652Z,9.10
2023-02-06T13:08:14.629Z,11.20
2023-02-06T13:09:14.625Z,8.80
2023-02-06T13:10:14.630Z,8.60
2023-02-06T13:11:14.610Z,8.80
2023-02-06T13:12:14.598Z,9.00
2023-02-06T13:13:14.604Z,9.60
2023-02-06T13:14:14.574Z,8.80
2023-02-06T13:15:14.559Z,8.40
2023-02-06T13:16:14.604Z,8.70
2023-02-06T13:17:14.559Z,8.10
2023-02-06T13:18:14.532Z,8.10